createdAt,value
2019-03-11T00:01:15.786Z,9.70
2019-03-11T00:05:20.677Z,9.90
2019-03-11T00:09:25.631Z,9.70
2019-03-11T00:13:30.539Z,9.90
2019-03-11T00:17:35.558Z,10.00
2019-03-11T00:21:40.428Z,10.00
2019-03-11T00:25:45.317Z,10.20
2019-03-11T00:29:50.287Z,10.00
2019-03-11T00:33:55.175Z,9.60
2019-03-11T00:38:00.162Z,9.10
2019-03-11T00:42:05.046Z,8.60
2019-03-11T00:46:11.066Z,8.80
2019-03-11T00:50:15.943Z,8.70
2019-03-11T00:54:20.988Z,8.70
2019-03-11T00:58:25.921Z,8.60
2019-03-11T01:02:31.304Z,8.90
2019-03-11T01:06:36.203Z,9.20
2019-03-11T01:10:41.283Z,9.50
2019-03-11T01:14:46.162Z,9.50
2019-03-11T01:18:51.224Z,9.20
2019-03-11T01:22:56.169Z,9.10
2019-03-11T01:27:01.035Z,9.30
2019-03-11T01:31:07.120Z,9.70
2019-03-11T01:35:13.129Z,10.10
2019-03-11T01:39:18.134Z,10.10
2019-03-11T01:43:23.017Z,10.20
2019-03-11T01:47:31.889Z,9.90
2019-03-11T01:51:36.760Z,9.80
2019-03-11T01:55:41.805Z,9.60
2019-03-11T01:59:46.696Z,9.50
2019-03-11T02:03:52.701Z,9.40
2019-03-11T02:07:57.611Z,9.20
2019-03-11T02:12:02.743Z,9.50
2019-03-11T02:16:07.621Z,9.60
2019-03-11T02:20:15.985Z,9.50
2019-03-11T02:24:21.079Z,9.40
2019-03-11T02:28:25.961Z,9.30
2019-03-11T02:32:36.866Z,9.30
2019-03-11T02:36:41.744Z,9.10
2019-03-11T02:40:46.871Z,9.00
2019-03-11T02:44:51.780Z,8.80
2019-03-11T02:48:58.175Z,8.90
2019-03-11T02:53:03.085Z,8.70
2019-03-11T02:57:08.154Z,8.60
2019-03-11T03:01:30.827Z,8.70
2019-03-11T03:05:40.519Z,8.70
2019-03-11T03:09:45.423Z,8.60
2019-03-11T03:13:50.279Z,8.50
2019-03-11T03:17:55.423Z,8.40
2019-03-11T03:22:00.313Z,8.20
2019-03-11T03:26:05.233Z,8.20
2019-03-11T03:30:13.298Z,8.20
2019-03-11T03:34:18.204Z,8.10
2019-03-11T03:38:30.516Z,7.80
2019-03-11T03:42:29.873Z,7.90
2019-03-11T03:46:35.984Z,7.90
2019-03-11T03:50:42.020Z,7.80
2019-03-11T03:54:46.894Z,7.70
2019-03-11T03:58:52.963Z,7.60
2019-03-11T04:02:57.832Z,7.70
2019-03-11T04:07:02.843Z,7.80
2019-03-11T04:11:09.843Z,7.60
2019-03-11T04:15:15.128Z,7.70
2019-03-11T04:19:21.139Z,7.60
2019-03-11T04:23:26.139Z,7.30
2019-03-11T04:27:31.146Z,7.20
2019-03-11T04:31:38.284Z,7.10
2019-03-11T04:35:43.141Z,7.10
2019-03-11T04:39:48.170Z,7.00
2019-03-11T04:43:53.074Z,6.80
2019-03-11T04:47:58.041Z,6.80
2019-03-11T04:52:02.951Z,6.80
2019-03-11T04:56:07.855Z,6.80
2019-03-11T05:00:15.109Z,6.90
2019-03-11T05:04:20.120Z,7.00
2019-03-11T05:08:25.036Z,7.00
2019-03-11T05:12:29.947Z,6.90
2019-03-11T05:16:34.812Z,7.00
2019-03-11T05:20:39.885Z,6.90
2019-03-11T05:24:44.925Z,6.90
2019-03-11T05:28:49.867Z,6.90
2019-03-11T05:32:54.942Z,7.00
2019-03-11T05:36:59.855Z,6.90
2019-03-11T05:41:04.867Z,7.10
2019-03-11T05:45:11.589Z,7.00
2019-03-11T05:49:16.579Z,7.30
2019-03-11T05:53:21.483Z,7.30
2019-03-11T05:57:26.435Z,7.20
2019-03-11T06:01:31.483Z,7.20
2019-03-11T06:05:36.447Z,7.10
2019-03-11T06:09:41.680Z,7.10
2019-03-11T06:13:46.717Z,7.10
2019-03-11T06:17:51.665Z,6.90
2019-03-11T06:22:29.053Z,6.90
2019-03-11T06:26:35.332Z,6.90
2019-03-11T06:30:40.367Z,6.90
2019-03-11T06:34:45.250Z,6.80
2019-03-11T06:38:50.166Z,6.80
2019-03-11T06:42:55.230Z,6.90
2019-03-11T06:47:00.170Z,6.80
2019-03-11T06:51:05.109Z,6.90
2019-03-11T06:55:10.448Z,6.90
2019-03-11T06:59:15.403Z,6.90
2019-03-11T07:03:20.650Z,6.80
2019-03-11T07:07:25.599Z,6.70
2019-03-11T07:11:30.523Z,6.80
2019-03-11T07:15:35.385Z,7.10
2019-03-11T07:19:40.376Z,7.30
2019-03-11T07:23:45.333Z,7.50
2019-03-11T07:27:50.349Z,7.60
2019-03-11T07:31:55.281Z,7.80
2019-03-11T07:36:00.399Z,8.00
2019-03-11T07:40:06.527Z,7.90
2019-03-11T07:44:11.684Z,7.90
2019-03-11T07:48:19.185Z,7.90
2019-03-11T07:52:24.673Z,8.00
2019-03-11T07:56:29.987Z,8.30
2019-03-11T08:00:40.268Z,8.70
2019-03-11T08:04:45.433Z,8.80
2019-03-11T08:08:51.696Z,9.10
2019-03-11T08:12:56.958Z,9.40
2019-03-11T08:17:02.208Z,9.40
2019-03-11T08:21:08.242Z,9.90
2019-03-11T08:25:13.396Z,9.90
2019-03-11T08:29:18.245Z,9.90
2019-03-11T08:33:23.163Z,10.00
2019-03-11T08:37:30.203Z,9.80
2019-03-11T08:41:35.133Z,9.90
2019-03-11T08:45:43.932Z,10.50
2019-03-11T08:49:48.869Z,12.30
2019-03-11T08:53:53.762Z,12.90
2019-03-11T08:57:59.827Z,13.40
2019-03-11T09:02:04.802Z,14.00
2019-03-11T09:06:11.860Z,14.60
2019-03-11T09:10:16.868Z,15.40
2019-03-11T09:14:21.814Z,16.40
2019-03-11T09:18:26.697Z,16.50
2019-03-11T09:22:37.870Z,14.70
2019-03-11T09:26:42.755Z,14.00
2019-03-11T09:30:49.911Z,13.50
2019-03-11T09:34:55.101Z,13.20
2019-03-11T09:39:12.273Z,12.50
2019-03-11T09:43:17.171Z,12.30
2019-03-11T09:47:26.056Z,12.10
2019-03-11T09:51:30.909Z,13.10
2019-03-11T09:55:35.803Z,13.00
2019-03-11T09:59:41.951Z,13.20
2019-03-11T10:03:46.858Z,13.60
2019-03-11T10:07:52.035Z,12.60
2019-03-11T10:11:57.078Z,12.00
2019-03-11T10:16:07.888Z,12.00
2019-03-11T10:20:13.230Z,12.30
2019-03-11T10:24:21.417Z,12.70
2019-03-11T10:28:27.422Z,12.40
2019-03-11T10:32:32.315Z,12.60
2019-03-11T10:36:37.214Z,13.40
2019-03-11T10:40:42.755Z,13.20
2019-03-11T10:44:48.020Z,12.80
2019-03-11T10:48:53.017Z,12.70
2019-03-11T10:52:58.080Z,12.80
2019-03-11T10:57:02.983Z,12.80
2019-03-11T11:01:09.765Z,13.60
2019-03-11T11:05:14.746Z,14.10
2019-03-11T11:09:19.727Z,15.30
2019-03-11T11:13:24.659Z,15.10
2019-03-11T11:17:29.696Z,14.60
2019-03-11T11:21:34.941Z,13.80
2019-03-11T11:25:39.836Z,13.30
2019-03-11T11:29:44.860Z,13.40
2019-03-11T11:33:49.766Z,13.60
2019-03-11T11:37:55.305Z,13.90
2019-03-11T11:42:00.809Z,14.30
2019-03-11T11:46:05.957Z,14.40
2019-03-11T11:50:12.821Z,15.10
2019-03-11T11:54:17.771Z,15.30
2019-03-11T11:58:22.654Z,15.40
2019-03-11T12:02:27.744Z,15.50
2019-03-11T12:06:32.743Z,15.20
2019-03-11T12:10:37.764Z,15.30
2019-03-11T12:14:42.693Z,14.60
2019-03-11T12:18:47.607Z,14.30
2019-03-11T12:22:52.619Z,13.70
2019-03-11T12:26:58.078Z,13.40
2019-03-11T12:31:04.253Z,12.70
2019-03-11T12:35:09.951Z,12.50
2019-03-11T12:39:16.313Z,12.00
2019-03-11T12:43:21.591Z,11.40
2019-03-11T12:47:28.038Z,11.10
2019-03-11T12:51:33.335Z,10.70
2019-03-11T12:55:38.279Z,10.40
2019-03-11T12:59:43.374Z,10.50
2019-03-11T13:03:48.328Z,10.20
2019-03-11T13:07:53.317Z,10.00
2019-03-11T13:11:59.464Z,10.00
2019-03-11T13:16:04.464Z,10.00
2019-03-11T13:20:12.495Z,9.90
2019-03-11T13:24:17.690Z,9.80
2019-03-11T13:28:23.116Z,9.50
2019-03-11T13:32:28.327Z,9.30
2019-03-11T13:36:35.272Z,9.00
2019-03-11T13:40:40.565Z,8.80
2019-03-11T13:44:45.959Z,8.70
2019-03-11T13:48:51.228Z,8.90
2019-03-11T13:52:56.611Z,8.80
2019-03-11T13:57:01.755Z,8.70
2019-03-11T14:01:10.323Z,8.50
2019-03-11T14:05:16.076Z,8.30
2019-03-11T14:09:21.377Z,8.20
2019-03-11T14:13:26.497Z,8.10
2019-03-11T14:17:33.241Z,8.10
2019-03-11T14:21:38.501Z,8.20
2019-03-11T14:25:44.916Z,8.10
2019-03-11T14:29:50.247Z,8.20
2019-03-11T14:33:55.469Z,8.20
2019-03-11T14:38:00.744Z,8.10
2019-03-11T14:42:06.012Z,8.10
2019-03-11T14:46:12.469Z,7.80
2019-03-11T14:50:18.053Z,7.80
2019-03-11T14:54:23.325Z,7.80
2019-03-11T14:58:29.572Z,7.80
2019-03-11T15:02:36.126Z,7.70
2019-03-11T15:06:41.041Z,7.70
2019-03-11T15:10:46.339Z,7.50
2019-03-11T15:14:51.374Z,7.40
2019-03-11T15:18:56.343Z,7.30
2019-03-11T15:23:06.254Z,7.20
2019-03-11T15:27:08.115Z,7.20
2019-03-11T15:31:13.136Z,7.20
2019-03-11T15:35:18.083Z,7.10
2019-03-11T15:39:23.139Z,7.20
2019-03-11T15:43:28.139Z,7.10
2019-03-11T15:47:33.129Z,7.10
2019-03-11T15:51:38.154Z,7.00
2019-03-11T15:55:47.566Z,6.90
2019-03-11T15:59:53.890Z,6.90
2019-03-11T16:04:00.207Z,6.80
2019-03-11T16:08:05.666Z,6.70
2019-03-11T16:12:14.816Z,6.60
2019-03-11T16:16:19.902Z,6.50
2019-03-11T16:20:26.179Z,6.40
2019-03-11T16:24:31.811Z,6.30
2019-03-11T16:28:47.545Z,6.20
2019-03-11T16:32:57.870Z,6.10
2019-03-11T16:36:50.187Z,6.00
2019-03-11T16:40:57.300Z,6.00
2019-03-11T16:45:02.306Z,5.90
2019-03-11T16:49:07.712Z,5.80
2019-03-11T16:53:12.885Z,5.70
2019-03-11T16:57:17.920Z,5.70
2019-03-11T17:01:25.182Z,5.60
2019-03-11T17:05:30.139Z,5.40
2019-03-11T17:09:35.175Z,5.40
2019-03-11T17:13:40.100Z,5.30
2019-03-11T17:17:46.120Z,5.20
2019-03-11T17:21:51.023Z,5.10
2019-03-11T17:25:58.039Z,5.10
2019-03-11T17:30:03.033Z,5.10
2019-03-11T17:34:07.913Z,5.20
2019-03-11T17:38:13.012Z,5.20
2019-03-11T17:42:18.148Z,5.10
2019-03-11T17:46:26.312Z,5.00
2019-03-11T17:50:32.267Z,4.90
2019-03-11T17:54:37.882Z,4.90
2019-03-11T17:58:43.540Z,4.80
2019-03-11T18:02:48.693Z,4.80
2019-03-11T18:06:53.642Z,4.60
2019-03-11T18:10:58.633Z,4.60
2019-03-11T18:15:03.711Z,4.50
2019-03-11T18:19:10.187Z,4.40
2019-03-11T18:23:15.129Z,4.20
2019-03-11T18:27:20.400Z,4.10
2019-03-11T18:31:25.332Z,3.90
2019-03-11T18:35:34.248Z,3.80
2019-03-11T18:39:39.302Z,3.70
2019-03-11T18:43:51.499Z,3.50
2019-03-11T18:47:56.358Z,3.40
2019-03-11T18:52:02.497Z,3.50
2019-03-11T18:56:07.537Z,3.30
2019-03-11T19:00:15.700Z,3.10
2019-03-11T19:04:20.713Z,3.30
2019-03-11T19:08:28.041Z,3.30
2019-03-11T19:12:33.203Z,3.60
2019-03-11T19:16:45.529Z,4.10
2019-03-11T19:20:52.649Z,4.30
2019-03-11T19:24:57.683Z,4.40
2019-03-11T19:29:03.629Z,4.40
2019-03-11T19:33:11.012Z,4.30
2019-03-11T19:37:15.213Z,4.20
2019-03-11T19:41:20.195Z,4.00
2019-03-11T19:45:25.286Z,3.80
2019-03-11T19:49:30.275Z,3.80
2019-03-11T19:53:35.328Z,3.70
2019-03-11T19:57:42.485Z,3.40
2019-03-11T20:01:47.565Z,3.30
2019-03-11T20:05:53.974Z,3.30
2019-03-11T20:10:00.368Z,3.30
2019-03-11T20:14:05.363Z,3.40
2019-03-11T20:18:11.730Z,3.30
2019-03-11T20:22:16.696Z,3.30
2019-03-11T20:26:21.851Z,3.30
2019-03-11T20:30:26.886Z,3.30
2019-03-11T20:34:31.911Z,3.20
2019-03-11T20:38:37.833Z,3.30
2019-03-11T20:42:43.861Z,3.20
2019-03-11T20:46:50.005Z,3.40
2019-03-11T20:50:54.969Z,3.40
2019-03-11T20:54:59.855Z,3.40
2019-03-11T20:59:04.726Z,3.30
2019-03-11T21:03:10.671Z,3.30
2019-03-11T21:07:15.608Z,3.20
2019-03-11T21:11:20.661Z,3.10
2019-03-11T21:15:25.750Z,3.10
2019-03-11T21:19:30.804Z,3.00
2019-03-11T21:23:36.923Z,2.90
2019-03-11T21:27:42.133Z,2.90
2019-03-11T21:31:47.146Z,2.80
2019-03-11T21:35:52.115Z,2.70
2019-03-11T21:39:58.169Z,2.70
2019-03-11T21:44:07.854Z,2.60
2019-03-11T21:48:22.184Z,2.50
2019-03-11T21:52:27.055Z,2.40
2019-03-11T21:56:32.011Z,2.50
2019-03-11T22:00:37.907Z,2.50
2019-03-11T22:04:42.787Z,2.60
2019-03-11T22:08:49.711Z,2.90
2019-03-11T22:12:54.715Z,3.10
2019-03-11T22:16:59.654Z,3.10
2019-03-11T22:21:06.644Z,3.00
2019-03-11T22:25:13.129Z,3.00
2019-03-11T22:29:18.106Z,2.90
2019-03-11T22:33:23.116Z,2.90
2019-03-11T22:37:28.333Z,2.90
2019-03-11T22:41:33.333Z,3.10
2019-03-11T22:45:38.238Z,3.20
2019-03-11T22:49:44.264Z,3.20
2019-03-11T22:53:51.610Z,3.20
2019-03-11T22:57:55.698Z,3.30
2019-03-11T23:02:00.658Z,3.10
2019-03-11T23:06:05.814Z,3.20
2019-03-11T23:10:10.954Z,3.10
2019-03-11T23:14:15.893Z,3.00
2019-03-11T23:18:22.013Z,2.90
2019-03-11T23:22:26.873Z,2.80
2019-03-11T23:26:32.926Z,2.80
2019-03-11T23:30:37.838Z,2.70
2019-03-11T23:34:42.796Z,2.40
2019-03-11T23:38:47.786Z,2.20
2019-03-11T23:42:52.676Z,2.20
2019-03-11T23:46:57.761Z,2.10
2019-03-11T23:51:03.759Z,1.90
2019-03-11T23:55:08.762Z,1.60
2019-03-11T23:59:13.652Z,1.50
